Irasville, VT

2:08 AM EDT on June 27, 2017 (GMT -0400)
Phen Basin | | Change Station

Elev 1706 ft 44.21 °N, 72.88 °W | Updated 54 seconds ago

Mostly Cloudy
Mostly Cloudy
55.6 °F
Feels Like 55.6 °F
N
0.0
Wind Variable Wind from SE
Gusts 0.0 mph

Today
High -- | Low -- °F
--% Chance of Precip.
Yesterday
High -- | Low -- °F
Precip. -- in
Pressure 30.01 in
Visibility 10.0 miles
Clouds Overcast 8000 ft
Dew Point 51 °F
Humidity 84%
Rainfall 0.00 in
Snow Depth Not available.
5:09 AM 8:39 PM
Waxing Crescent, 14% visible
METAR KMPV 270551Z AUTO 00000KT 10SM -RA OVC080 12/12 A3001 RMK AO2 RAB40 SLP162 P0000 60000 T01220122 10161 20111 50000
Pressure 30.01 in
Visibility 10.0 miles
Clouds Overcast 8000 ft
Dew Point 51 °F
Humidity 84%
Rainfall 0.00 in
Snow Depth Not available.
5:09 AM 8:39 PM
Waxing Crescent, 14% visible
METAR KMPV 270551Z AUTO 00000KT 10SM -RA OVC080 12/12 A3001 RMK AO2 RAB40 SLP162 P0000 60000 T01220122 10161 20111 50000

Get Severe Weather Alerts

Thanks for signing up!

Be on the lookout for a verification email in your inbox.

You'll start receiving the daily forecast at 6 AM.

×

10-Day Weather Forecast

Almanac

Astronomy

Jun. 27, 2017 Rise Set
Actual Time
Civil Twilight
Nautical Twilight
Astronomical Twilight
Moon
Length of Visible Light
Length of Day
Tomorrow will be .
, % of the Moon is Illuminated

Today's Extremes

State Highs State Lows

Community

WunderPhotos

Category 6

Welcome to Category 6. This is the collective home for Weather Underground's featured writeups by Dr. Jeff Masters (right), Bob Henson (left), Chris Burt, and other regular contributors.

Nearby

Air Quality

  Air Quality AQ Index Pollutant
Not available.

Snow Depth

Station Depth Elevation

Earthquake Activity

City Distance Mag. Time & Date
Minimum magnitude displayed is 2.5.

Coastal Water Temperatures

Place Temperature

Stations

Nearby Weather Stations

Station Location Temp. Windchill Dew Point Humidity Wind Precip. Elev Updated Type
                   

Watches & Warnings

There are currently no watches in effect.